sensor_id;sensor_type;location;lat;lon;timestamp;pressure;altitude;pressure_sealevel;temperature;humidity
72685;BME280;61365;52.162;4.500;2023-05-25T00:01:32;102635.81;;;13.15;73.40
72685;BME280;61365;52.162;4.500;2023-05-25T00:03:59;102633.09;;;13.09;73.35
72685;BME280;61365;52.162;4.500;2023-05-25T00:06:27;102631.34;;;13.09;74.05
72685;BME280;61365;52.162;4.500;2023-05-25T00:08:54;102638.38;;;13.09;74.43
72685;BME280;61365;52.162;4.500;2023-05-25T00:11:25;102642.00;;;13.15;73.45
72685;BME280;61365;52.162;4.500;2023-05-25T00:13:51;102647.16;;;13.09;73.87
72685;BME280;61365;52.162;4.500;2023-05-25T00:16:18;102637.09;;;12.86;74.38
72685;BME280;61365;52.162;4.500;2023-05-25T00:18:44;102640.91;;;13.04;74.12
72685;BME280;61365;52.162;4.500;2023-05-25T00:21:13;102630.31;;;13.01;74.10
72685;BME280;61365;52.162;4.500;2023-05-25T00:23:40;102638.81;;;12.84;74.58
72685;BME280;61365;52.162;4.500;2023-05-25T00:26:07;102634.25;;;12.75;75.55
72685;BME280;61365;52.162;4.500;2023-05-25T00:28:33;102644.09;;;12.84;74.93
72685;BME280;61365;52.162;4.500;2023-05-25T00:30:59;102634.53;;;12.89;73.91
72685;BME280;61365;52.162;4.500;2023-05-25T00:33:26;102635.25;;;12.81;74.90
72685;BME280;61365;52.162;4.500;2023-05-25T00:35:52;102634.91;;;12.64;75.36
72685;BME280;61365;52.162;4.500;2023-05-25T00:38:18;102637.03;;;12.82;75.27
72685;BME280;61365;52.162;4.500;2023-05-25T00:40:45;102636.28;;;12.90;74.16
72685;BME280;61365;52.162;4.500;2023-05-25T00:43:11;102636.28;;;12.90;74.60
72685;BME280;61365;52.162;4.500;2023-05-25T00:45:38;102648.28;;;12.73;75.47
72685;BME280;61365;52.162;4.500;2023-05-25T00:48:04;102648.97;;;12.64;75.66
72685;BME280;61365;52.162;4.500;2023-05-25T00:50:40;102650.00;;;12.72;75.67
72685;BME280;61365;52.162;4.500;2023-05-25T00:53:08;102650.28;;;12.86;74.36
72685;BME280;61365;52.162;4.500;2023-05-25T00:55:38;102651.78;;;12.72;75.56
72685;BME280;61365;52.162;4.500;2023-05-25T00:58:26;102650.81;;;12.68;76.25
72685;BME280;61365;52.162;4.500;2023-05-25T01:00:56;102648.22;;;12.71;75.32
72685;BME280;61365;52.162;4.500;2023-05-25T01:03:24;102655.09;;;12.63;76.67
72685;BME280;61365;52.162;4.500;2023-05-25T01:05:54;102655.94;;;12.60;76.58
72685;BME280;61365;52.162;4.500;2023-05-25T01:08:23;102660.53;;;12.72;75.75
72685;BME280;61365;52.162;4.500;2023-05-25T01:10:50;102660.41;;;12.66;75.47
72685;BME280;61365;52.162;4.500;2023-05-25T01:13:19;102656.00;;;12.65;75.03
72685;BME280;61365;52.162;4.500;2023-05-25T01:15:48;102657.28;;;12.41;76.53
72685;BME280;61365;52.162;4.500;2023-05-25T01:18:16;102657.78;;;12.65;75.83
72685;BME280;61365;52.162;4.500;2023-05-25T01:23:41;102665.63;;;12.63;75.87
72685;BME280;61365;52.162;4.500;2023-05-25T01:26:12;102665.00;;;12.76;75.90
72685;BME280;61365;52.162;4.500;2023-05-25T01:28:43;102677.13;;;12.67;75.93
72685;BME280;61365;52.162;4.500;2023-05-25T01:31:14;102660.19;;;12.54;76.06
72685;BME280;61365;52.162;4.500;2023-05-25T01:33:43;102656.56;;;12.49;75.78
72685;BME280;61365;52.162;4.500;2023-05-25T01:36:11;102665.03;;;12.32;77.04
72685;BME280;61365;52.162;4.500;2023-05-25T01:38:37;102660.41;;;12.22;77.61
72685;BME280;61365;52.162;4.500;2023-05-25T01:41:03;102668.22;;;12.19;77.95
72685;BME280;61365;52.162;4.500;2023-05-25T01:43:29;102664.13;;;12.31;78.24
72685;BME280;61365;52.162;4.500;2023-05-25T01:45:57;102664.28;;;12.39;77.97
72685;BME280;61365;52.162;4.500;2023-05-25T01:48:36;102665.72;;;12.25;78.39
72685;BME280;61365;52.162;4.500;2023-05-25T01:51:55;102669.66;;;12.44;77.76
72685;BME280;61365;52.162;4.500;2023-05-25T01:54:20;102674.84;;;12.41;77.11
72685;BME280;61365;52.162;4.500;2023-05-25T01:56:50;102678.56;;;12.09;77.36
72685;BME280;61365;52.162;4.500;2023-05-25T01:59:20;102682.06;;;12.08;77.82
72685;BME280;61365;52.162;4.500;2023-05-25T02:01:47;102682.06;;;12.08;78.11
72685;BME280;61365;52.162;4.500;2023-05-25T02:04:16;102675.03;;;12.09;78.38
72685;BME280;61365;52.162;4.500;2023-05-25T02:06:42;102678.25;;;11.97;78.85
72685;BME280;61365;52.162;4.500;2023-05-25T02:09:08;102677.81;;;12.16;78.82
72685;BME280;61365;52.162;4.500;2023-05-25T02:11:34;102676.97;;;12.16;77.64
72685;BME280;61365;52.162;4.500;2023-05-25T02:14:00;102683.88;;;11.74;79.67
72685;BME280;61365;52.162;4.500;2023-05-25T02:16:26;102677.59;;;11.69;80.70
72685;BME280;61365;52.162;4.500;2023-05-25T02:18:54;102681.56;;;11.88;79.33
72685;BME280;61365;52.162;4.500;2023-05-25T02:21:22;102695.25;;;11.38;81.84
72685;BME280;61365;52.162;4.500;2023-05-25T02:23:48;102693.88;;;11.52;81.36
72685;BME280;61365;52.162;4.500;2023-05-25T02:26:14;102705.84;;;11.41;81.62
72685;BME280;61365;52.162;4.500;2023-05-25T02:28:41;102711.19;;;11.44;82.24
72685;BME280;61365;52.162;4.500;2023-05-25T02:31:07;102697.41;;;11.91;80.58
72685;BME280;61365;52.162;4.500;2023-05-25T02:33:33;102696.13;;;12.10;79.21
72685;BME280;61365;52.162;4.500;2023-05-25T02:35:59;102693.53;;;12.12;78.21
72685;BME280;61365;52.162;4.500;2023-05-25T02:38:25;102709.22;;;12.07;78.93
72685;BME280;61365;52.162;4.500;2023-05-25T02:40:51;102707.38;;;12.03;78.55
72685;BME280;61365;52.162;4.500;2023-05-25T02:43:17;102704.53;;;11.95;79.04
72685;BME280;61365;52.162;4.500;2023-05-25T02:45:43;102702.28;;;11.74;80.35
72685;BME280;61365;52.162;4.500;2023-05-25T02:48:10;102703.19;;;11.76;80.43
72685;BME280;61365;52.162;4.500;2023-05-25T02:50:36;102698.63;;;12.04;78.45
72685;BME280;61365;52.162;4.500;2023-05-25T02:53:02;102701.66;;;11.84;78.96
72685;BME280;61365;52.162;4.500;2023-05-25T02:55:29;102714.91;;;11.89;79.42
72685;BME280;61365;52.162;4.500;2023-05-25T02:57:55;102700.06;;;11.91;79.35
72685;BME280;61365;52.162;4.500;2023-05-25T03:00:21;102704.97;;;11.77;78.73
72685;BME280;61365;52.162;4.500;2023-05-25T03:02:48;102709.06;;;11.64;79.81
72685;BME280;61365;52.162;4.500;2023-05-25T03:05:14;102707.78;;;11.48;80.76
72685;BME280;61365;52.162;4.500;2023-05-25T03:07:41;102706.94;;;11.49;81.83
72685;BME280;61365;52.162;4.500;2023-05-25T03:10:08;102709.31;;;11.40;81.48
72685;BME280;61365;52.162;4.500;2023-05-25T03:12:36;102714.53;;;11.38;81.92
72685;BME280;61365;52.162;4.500;2023-05-25T03:15:02;102706.75;;;11.43;81.97
72685;BME280;61365;52.162;4.500;2023-05-25T03:17:29;102702.91;;;11.29;82.88
72685;BME280;61365;52.162;4.500;2023-05-25T03:19:55;102707.59;;;11.40;82.44
72685;BME280;61365;52.162;4.500;2023-05-25T03:22:21;102704.78;;;11.34;82.21
72685;BME280;61365;52.162;4.500;2023-05-25T03:24:47;102706.66;;;11.38;81.54
72685;BME280;61365;52.162;4.500;2023-05-25T03:27:14;102704.78;;;11.33;81.69
72685;BME280;61365;52.162;4.500;2023-05-25T03:29:40;102705.72;;;11.36;82.01
72685;BME280;61365;52.162;4.500;2023-05-25T03:32:06;102715.97;;;11.61;81.06
72685;BME280;61365;52.162;4.500;2023-05-25T03:34:33;102718.03;;;11.39;81.19
72685;BME280;61365;52.162;4.500;2023-05-25T03:37:00;102712.22;;;11.51;81.53
72685;BME280;61365;52.162;4.500;2023-05-25T03:39:26;102720.44;;;11.65;80.53
72685;BME280;61365;52.162;4.500;2023-05-25T03:41:52;102713.72;;;11.41;81.36
72685;BME280;61365;52.162;4.500;2023-05-25T03:44:18;102711.94;;;11.40;81.76
72685;BME280;61365;52.162;4.500;2023-05-25T03:46:45;102711.91;;;11.38;81.56
72685;BME280;61365;52.162;4.500;2023-05-25T03:49:11;102713.16;;;11.53;81.29
72685;BME280;61365;52.162;4.500;2023-05-25T03:51:39;102719.16;;;11.49;81.54
72685;BME280;61365;52.162;4.500;2023-05-25T03:54:06;102719.97;;;11.45;81.34
72685;BME280;61365;52.162;4.500;2023-05-25T03:56:32;102721.00;;;11.51;81.56
72685;BME280;61365;52.162;4.500;2023-05-25T03:58:58;102725.50;;;11.55;81.44
72685;BME280;61365;52.162;4.500;2023-05-25T04:01:25;102722.97;;;11.60;81.30
72685;BME280;61365;52.162;4.500;2023-05-25T04:03:51;102727.72;;;11.75;80.95
72685;BME280;61365;52.162;4.500;2023-05-25T04:06:17;102725.72;;;12.00;79.91
72685;BME280;61365;52.162;4.500;2023-05-25T04:08:44;102728.66;;;12.14;78.88
72685;BME280;61365;52.162;4.500;2023-05-25T04:11:10;102727.81;;;12.55;78.33
72685;BME280;61365;52.162;4.500;2023-05-25T04:13:36;102722.13;;;12.77;76.14
72685;BME280;61365;52.162;4.500;2023-05-25T04:16:05;102733.28;;;13.12;75.93
72685;BME280;61365;52.162;4.500;2023-05-25T04:18:31;102735.66;;;13.44;73.83
72685;BME280;61365;52.162;4.500;2023-05-25T04:20:58;102727.69;;;13.93;72.24
72685;BME280;61365;52.162;4.500;2023-05-25T04:23:24;102731.34;;;14.03;70.41
72685;BME280;61365;52.162;4.500;2023-05-25T04:25:50;102734.91;;;14.05;70.62
72685;BME280;61365;52.162;4.500;2023-05-25T04:28:17;102737.69;;;14.16;70.71
72685;BME280;61365;52.162;4.500;2023-05-25T04:30:43;102740.59;;;14.33;70.63
72685;BME280;61365;52.162;4.500;2023-05-25T04:33:09;102737.44;;;14.62;70.03
72685;BME280;61365;52.162;4.500;2023-05-25T04:35:38;102740.25;;;14.76;68.45
72685;BME280;61365;52.162;4.500;2023-05-25T04:38:07;102731.78;;;15.03;68.37
72685;BME280;61365;52.162;4.500;2023-05-25T04:40:37;102739.81;;;15.14;68.04
72685;BME280;61365;52.162;4.500;2023-05-25T04:43:06;102747.44;;;15.79;65.24
72685;BME280;61365;52.162;4.500;2023-05-25T04:45:34;102739.03;;;16.37;63.16
72685;BME280;61365;52.162;4.500;2023-05-25T04:48:00;102744.44;;;16.60;61.96
72685;BME280;61365;52.162;4.500;2023-05-25T04:50:27;102758.50;;;16.45;63.17
72685;BME280;61365;52.162;4.500;2023-05-25T04:52:53;102757.25;;;15.86;64.44
72685;BME280;61365;52.162;4.500;2023-05-25T04:55:20;102752.00;;;15.95;64.59
72685;BME280;61365;52.162;4.500;2023-05-25T04:57:46;102749.56;;;16.21;63.61
72685;BME280;61365;52.162;4.500;2023-05-25T05:00:12;102750.81;;;17.07;59.61
72685;BME280;61365;52.162;4.500;2023-05-25T05:02:39;102755.22;;;17.01;60.75
72685;BME280;61365;52.162;4.500;2023-05-25T05:05:06;102761.47;;;17.46;58.98
72685;BME280;61365;52.162;4.500;2023-05-25T05:07:32;102762.34;;;17.56;58.83
72685;BME280;61365;52.162;4.500;2023-05-25T05:09:58;102762.28;;;16.97;59.89
72685;BME280;61365;52.162;4.500;2023-05-25T05:12:24;102763.19;;;17.15;59.20
72685;BME280;61365;52.162;4.500;2023-05-25T05:14:51;102759.72;;;17.33;58.37
72685;BME280;61365;52.162;4.500;2023-05-25T05:17:17;102762.34;;;17.56;58.83
72685;BME280;61365;52.162;4.500;2023-05-25T05:19:43;102764.13;;;17.54;58.54
72685;BME280;61365;52.162;4.500;2023-05-25T05:22:10;102766.78;;;17.79;57.90
72685;BME280;61365;52.162;4.500;2023-05-25T05:24:37;102770.34;;;18.13;57.50
72685;BME280;61365;52.162;4.500;2023-05-25T05:27:04;102765.03;;;18.09;57.41
72685;BME280;61365;52.162;4.500;2023-05-25T05:29:30;102765.03;;;18.10;56.80
72685;BME280;61365;52.162;4.500;2023-05-25T05:31:56;102767.66;;;18.20;57.29
72685;BME280;61365;52.162;4.500;2023-05-25T05:34:22;102763.28;;;18.00;56.97
72685;BME280;61365;52.162;4.500;2023-05-25T05:36:48;102770.34;;;17.90;57.87
72685;BME280;61365;52.162;4.500;2023-05-25T05:39:14;102773.88;;;17.72;57.97
72685;BME280;61365;52.162;4.500;2023-05-25T05:41:40;102774.75;;;17.88;57.66
72685;BME280;61365;52.162;4.500;2023-05-25T05:44:10;102781.84;;;17.70;58.11
72685;BME280;61365;52.162;4.500;2023-05-25T05:46:39;102790.69;;;17.97;57.85
72685;BME280;61365;52.162;4.500;2023-05-25T05:49:06;102793.34;;;17.62;57.82
72685;BME280;61365;52.162;4.500;2023-05-25T05:51:32;102791.53;;;17.26;59.41
72685;BME280;61365;52.162;4.500;2023-05-25T05:53:58;102792.31;;;16.98;61.01
72685;BME280;61365;52.162;4.500;2023-05-25T05:56:24;102805.28;;;16.39;62.81
72685;BME280;61365;52.162;4.500;2023-05-25T05:58:51;102798.34;;;16.65;61.93
72685;BME280;61365;52.162;4.500;2023-05-25T06:01:19;102796.66;;;16.83;61.30
72685;BME280;61365;52.162;4.500;2023-05-25T06:03:47;102803.09;;;17.78;59.30
72685;BME280;61365;52.162;4.500;2023-05-25T06:06:15;102794.22;;;17.81;59.01
72685;BME280;61365;52.162;4.500;2023-05-25T06:08:41;102802.19;;;17.51;59.60
72685;BME280;61365;52.162;4.500;2023-05-25T06:11:08;102806.66;;;17.76;58.48
72685;BME280;61365;52.162;4.500;2023-05-25T06:13:34;102803.00;;;18.56;56.29
72685;BME280;61365;52.162;4.500;2023-05-25T06:16:00;102801.78;;;19.34;53.76
72685;BME280;61365;52.162;4.500;2023-05-25T06:18:26;102811.69;;;19.06;54.27
72685;BME280;61365;52.162;4.500;2023-05-25T06:20:52;102813.16;;;19.58;52.97
72685;BME280;61365;52.162;4.500;2023-05-25T06:23:18;102821.00;;;19.78;52.07
72685;BME280;61365;52.162;4.500;2023-05-25T06:25:44;102815.88;;;19.46;52.20
72685;BME280;61365;52.162;4.500;2023-05-25T06:28:11;102808.50;;;19.91;52.04
72685;BME280;61365;52.162;4.500;2023-05-25T06:30:37;102808.94;;;19.28;51.80
72685;BME280;61365;52.162;4.500;2023-05-25T06:33:03;102811.75;;;18.97;53.77
72685;BME280;61365;52.162;4.500;2023-05-25T06:35:29;102805.78;;;19.96;51.50
72685;BME280;61365;52.162;4.500;2023-05-25T06:37:56;102813.38;;;20.38;50.23
72685;BME280;61365;52.162;4.500;2023-05-25T06:40:22;102804.59;;;20.28;49.90
72685;BME280;61365;52.162;4.500;2023-05-25T06:42:48;102805.69;;;20.07;50.92
72685;BME280;61365;52.162;4.500;2023-05-25T06:45:14;102819.03;;;18.22;55.09
72685;BME280;61365;52.162;4.500;2023-05-25T06:47:41;102831.28;;;17.16;58.47
72685;BME280;61365;52.162;4.500;2023-05-25T06:50:07;102828.75;;;17.54;57.06
72685;BME280;61365;52.162;4.500;2023-05-25T06:52:33;102830.44;;;17.28;58.69
72685;BME280;61365;52.162;4.500;2023-05-25T06:55:00;102825.97;;;17.08;59.48
72685;BME280;61365;52.162;4.500;2023-05-25T06:57:27;102821.59;;;17.22;60.18
72685;BME280;61365;52.162;4.500;2023-05-25T06:59:53;102822.56;;;17.74;57.54
72685;BME280;61365;52.162;4.500;2023-05-25T07:02:19;102829.59;;;17.47;58.37
72685;BME280;61365;52.162;4.500;2023-05-25T07:04:45;102843.56;;;16.92;59.67
72685;BME280;61365;52.162;4.500;2023-05-25T07:07:11;102835.84;;;18.18;56.56
72685;BME280;61365;52.162;4.500;2023-05-25T07:09:38;102838.50;;;18.44;55.76
72685;BME280;61365;52.162;4.500;2023-05-25T07:12:06;102844.66;;;17.48;56.98
72685;BME280;61365;52.162;4.500;2023-05-25T07:14:34;102837.44;;;17.08;58.90
72685;BME280;61365;52.162;4.500;2023-05-25T07:17:00;102835.84;;;17.93;55.58
72685;BME280;61365;52.162;4.500;2023-05-25T07:19:26;102842.91;;;17.75;56.25
72685;BME280;61365;52.162;4.500;2023-05-25T07:21:52;102855.34;;;18.04;57.12
72685;BME280;61365;52.162;4.500;2023-05-25T07:24:18;102864.19;;;18.29;53.97
72685;BME280;61365;52.162;4.500;2023-05-25T07:26:44;102853.19;;;16.77;59.69
72685;BME280;61365;52.162;4.500;2023-05-25T07:29:10;102850.59;;;16.91;58.09
72685;BME280;61365;52.162;4.500;2023-05-25T07:31:37;102859.63;;;17.24;58.36
72685;BME280;61365;52.162;4.500;2023-05-25T07:34:03;102860.50;;;17.22;58.84
72685;BME280;61365;52.162;4.500;2023-05-25T07:36:29;102867.16;;;16.45;60.28
72685;BME280;61365;52.162;4.500;2023-05-25T07:38:56;102866.53;;;16.93;59.02
72685;BME280;61365;52.162;4.500;2023-05-25T07:41:23;102872.91;;;17.35;57.78
72685;BME280;61365;52.162;4.500;2023-05-25T07:43:49;102869.38;;;17.32;57.85
72685;BME280;61365;52.162;4.500;2023-05-25T07:46:16;102872.94;;;17.41;57.44
72685;BME280;61365;52.162;4.500;2023-05-25T07:48:45;102870.41;;;18.08;55.64
72685;BME280;61365;52.162;4.500;2023-05-25T07:51:11;102872.19;;;18.23;54.09
72685;BME280;61365;52.162;4.500;2023-05-25T07:53:37;102869.44;;;17.69;57.32
72685;BME280;61365;52.162;4.500;2023-05-25T07:56:03;102870.41;;;18.07;54.83
72685;BME280;61365;52.162;4.500;2023-05-25T07:58:30;102871.31;;;18.21;54.20
72685;BME280;61365;52.162;4.500;2023-05-25T08:00:56;102877.50;;;18.20;55.69
72685;BME280;61365;52.162;4.500;2023-05-25T08:03:22;102883.63;;;17.59;55.83
72685;BME280;61365;52.162;4.500;2023-05-25T08:05:48;102888.06;;;17.80;55.73
72685;BME280;61365;52.162;4.500;2023-05-25T08:08:15;102882.78;;;18.51;54.38
72685;BME280;61365;52.162;4.500;2023-05-25T08:10:41;102881.81;;;18.96;52.79
72685;BME280;61365;52.162;4.500;2023-05-25T08:13:09;102890.69;;;18.78;52.18
72685;BME280;61365;52.162;4.500;2023-05-25T08:15:35;102892.53;;;18.49;52.85
72685;BME280;61365;52.162;4.500;2023-05-25T08:18:01;102880.97;;;18.78;52.41
72685;BME280;61365;52.162;4.500;2023-05-25T08:20:29;102890.75;;;18.46;52.91
72685;BME280;61365;52.162;4.500;2023-05-25T08:22:55;102889.91;;;18.21;54.43
72685;BME280;61365;52.162;4.500;2023-05-25T08:25:22;102887.88;;;19.30;50.71
72685;BME280;61365;52.162;4.500;2023-05-25T08:27:48;102895.06;;;19.05;50.36
72685;BME280;61365;52.162;4.500;2023-05-25T08:30:14;102900.44;;;18.82;51.97
72685;BME280;61365;52.162;4.500;2023-05-25T08:32:40;102904.00;;;18.71;52.09
72685;BME280;61365;52.162;4.500;2023-05-25T08:35:06;102903.16;;;18.16;52.89
72685;BME280;61365;52.162;4.500;2023-05-25T08:37:33;102903.16;;;18.01;53.24
72685;BME280;61365;52.162;4.500;2023-05-25T08:40:00;102918.88;;;17.22;56.71
72685;BME280;61365;52.162;4.500;2023-05-25T08:42:27;102912.56;;;16.96;56.74
72685;BME280;61365;52.162;4.500;2023-05-25T08:44:54;102918.00;;;17.23;56.02
72685;BME280;61365;52.162;4.500;2023-05-25T08:47:21;102913.56;;;17.23;55.85
72685;BME280;61365;52.162;4.500;2023-05-25T08:49:48;102920.47;;;16.95;58.15
72685;BME280;61365;52.162;4.500;2023-05-25T08:52:16;102925.72;;;16.90;56.78
72685;BME280;61365;52.162;4.500;2023-05-25T08:54:46;102922.22;;;16.94;57.11
72685;BME280;61365;52.162;4.500;2023-05-25T09:02:38;102917.88;;;17.00;58.68
72685;BME280;61365;52.162;4.500;2023-05-25T09:05:10;102922.22;;;16.93;59.01
72685;BME280;61365;52.162;4.500;2023-05-25T09:07:38;102921.44;;;17.09;58.67
72685;BME280;61365;52.162;4.500;2023-05-25T09:10:08;102922.97;;;16.70;59.12
72685;BME280;61365;52.162;4.500;2023-05-25T09:12:35;102915.06;;;16.78;57.66
72685;BME280;61365;52.162;4.500;2023-05-25T09:15:03;102922.09;;;16.73;57.21
72685;BME280;61365;52.162;4.500;2023-05-25T09:17:30;102930.94;;;16.75;57.12
72685;BME280;61365;52.162;4.500;2023-05-25T09:19:56;102924.97;;;16.99;57.91
72685;BME280;61365;52.162;4.500;2023-05-25T09:22:23;102914.53;;;17.47;57.13
72685;BME280;61365;52.162;4.500;2023-05-25T09:24:50;102919.94;;;17.84;54.33
72685;BME280;61365;52.162;4.500;2023-05-25T09:27:18;102918.09;;;17.57;55.98
72685;BME280;61365;52.162;4.500;2023-05-25T09:29:49;102916.41;;;17.78;55.86
72685;BME280;61365;52.162;4.500;2023-05-25T09:32:16;102910.13;;;17.54;56.55
72685;BME280;61365;52.162;4.500;2023-05-25T09:34:44;102914.59;;;17.67;54.85
72685;BME280;61365;52.162;4.500;2023-05-25T09:37:11;102921.56;;;17.34;55.76
72685;BME280;61365;52.162;4.500;2023-05-25T09:39:39;102923.03;;;16.81;56.60
72685;BME280;61365;52.162;4.500;2023-05-25T09:42:06;102911.88;;;17.46;54.59
72685;BME280;61365;52.162;4.500;2023-05-25T09:44:33;102921.50;;;17.16;56.30
72685;BME280;61365;52.162;4.500;2023-05-25T09:46:59;102924.22;;;17.34;54.06
72685;BME280;61365;52.162;4.500;2023-05-25T09:49:25;102929.50;;;17.31;54.65
72685;BME280;61365;52.162;4.500;2023-05-25T09:51:51;102928.66;;;17.38;54.88
72685;BME280;61365;52.162;4.500;2023-05-25T09:54:18;102922.91;;;16.59;56.32
72685;BME280;61365;52.162;4.500;2023-05-25T09:56:47;102925.84;;;17.03;56.49
72685;BME280;61365;52.162;4.500;2023-05-25T09:59:14;102931.28;;;17.32;55.31
72685;BME280;61365;52.162;4.500;2023-05-25T10:01:40;102932.16;;;17.31;55.93
72685;BME280;61365;52.162;4.500;2023-05-25T10:04:07;102940.03;;;17.09;57.61
72685;BME280;61365;52.162;4.500;2023-05-25T10:06:33;102944.28;;;16.90;59.78
72685;BME280;61365;52.162;4.500;2023-05-25T10:09:00;102952.34;;;16.98;58.94
72685;BME280;61365;52.162;4.500;2023-05-25T10:11:29;102948.03;;;17.19;58.79
72685;BME280;61365;52.162;4.500;2023-05-25T10:13:58;102947.09;;;17.09;58.01
72685;BME280;61365;52.162;4.500;2023-05-25T10:16:28;102946.06;;;16.88;59.29
72685;BME280;61365;52.162;4.500;2023-05-25T10:21:29;102939.31;;;17.54;57.27
72685;BME280;61365;52.162;4.500;2023-05-25T10:24:21;102934.09;;;17.74;57.04
72685;BME280;61365;52.162;4.500;2023-05-25T10:27:07;102935.94;;;17.98;54.78
72685;BME280;61365;52.162;4.500;2023-05-25T10:29:38;102929.63;;;17.58;56.04
72685;BME280;61365;52.162;4.500;2023-05-25T10:32:05;102936.72;;;17.68;55.86
72685;BME280;61365;52.162;4.500;2023-05-25T10:34:32;102935.97;;;18.20;54.16
72685;BME280;61365;52.162;4.500;2023-05-25T10:36:58;102940.38;;;18.10;55.45
72685;BME280;61365;52.162;4.500;2023-05-25T10:39:28;102938.56;;;17.95;54.84
72685;BME280;61365;52.162;4.500;2023-05-25T10:41:55;102940.38;;;18.16;53.29
72685;BME280;61365;52.162;4.500;2023-05-25T10:44:22;102942.97;;;17.82;54.51
72685;BME280;61365;52.162;4.500;2023-05-25T10:46:49;102945.63;;;17.78;54.54
72685;BME280;61365;52.162;4.500;2023-05-25T10:49:29;102942.88;;;17.51;56.13
72685;BME280;61365;52.162;4.500;2023-05-25T10:51:59;102951.50;;;17.05;57.08
72685;BME280;61365;52.162;4.500;2023-05-25T10:54:29;102946.22;;;17.11;57.16
72685;BME280;61365;52.162;4.500;2023-05-25T10:57:11;102948.91;;;17.16;56.98
72685;BME280;61365;52.162;4.500;2023-05-25T10:59:46;102957.78;;;16.05;60.18
72685;BME280;61365;52.162;4.500;2023-05-25T11:02:14;102964.25;;;16.42;60.07
72685;BME280;61365;52.162;4.500;2023-05-25T11:04:41;102963.13;;;16.13;60.50
72685;BME280;61365;52.162;4.500;2023-05-25T11:07:07;102967.00;;;16.51;59.75
72685;BME280;61365;52.162;4.500;2023-05-25T11:09:42;102967.88;;;16.50;60.19
72685;BME280;61365;52.162;4.500;2023-05-25T11:12:20;102964.44;;;16.60;60.20
72685;BME280;61365;52.162;4.500;2023-05-25T11:17:57;102949.34;;;16.48;59.19
72685;BME280;61365;52.162;4.500;2023-05-25T11:20:26;102952.94;;;16.58;58.48
72685;BME280;61365;52.162;4.500;2023-05-25T11:22:55;102946.69;;;16.50;59.91
72685;BME280;61365;52.162;4.500;2023-05-25T11:25:35;102958.34;;;16.78;57.74
72685;BME280;61365;52.162;4.500;2023-05-25T11:28:03;102946.69;;;16.48;60.29
72685;BME280;61365;52.162;4.500;2023-05-25T11:30:31;102943.50;;;16.96;57.45
72685;BME280;61365;52.162;4.500;2023-05-25T11:33:00;102947.09;;;17.10;56.44
72685;BME280;61365;52.162;4.500;2023-05-25T11:35:27;102949.78;;;17.12;56.21
72685;BME280;61365;52.162;4.500;2023-05-25T11:37:58;102945.19;;;16.89;56.73
72685;BME280;61365;52.162;4.500;2023-05-25T11:40:28;102938.28;;;17.10;56.34
72685;BME280;61365;52.162;4.500;2023-05-25T11:42:56;102939.22;;;17.28;54.17
72685;BME280;61365;52.162;4.500;2023-05-25T11:45:28;102946.00;;;16.80;53.60
72685;BME280;61365;52.162;4.500;2023-05-25T11:47:56;102937.34;;;17.06;53.02
72685;BME280;61365;52.162;4.500;2023-05-25T11:50:23;102943.31;;;16.73;54.56
72685;BME280;61365;52.162;4.500;2023-05-25T11:52:49;102937.19;;;16.85;55.00
72685;BME280;61365;52.162;4.500;2023-05-25T11:55:15;102929.25;;;16.83;54.64
72685;BME280;61365;52.162;4.500;2023-05-25T11:57:41;102932.66;;;16.66;54.47
72685;BME280;61365;52.162;4.500;2023-05-25T12:00:08;102942.44;;;16.72;53.12
72685;BME280;61365;52.162;4.500;2023-05-25T12:02:36;102932.69;;;16.73;54.44
72685;BME280;61365;52.162;4.500;2023-05-25T12:05:03;102928.66;;;17.37;52.84
72685;BME280;61365;52.162;4.500;2023-05-25T12:07:32;102932.31;;;17.81;52.27
72685;BME280;61365;52.162;4.500;2023-05-25T12:12:39;102927.91;;;17.89;52.75
72685;BME280;61365;52.162;4.500;2023-05-25T12:15:22;102935.88;;;17.83;51.73
72685;BME280;61365;52.162;4.500;2023-05-25T12:17:49;102932.28;;;17.62;52.88
72685;BME280;61365;52.162;4.500;2023-05-25T12:20:17;102929.75;;;18.04;51.98
72685;BME280;61365;52.162;4.500;2023-05-25T12:22:44;102928.84;;;18.35;49.66
72685;BME280;61365;52.162;4.500;2023-05-25T12:25:11;102929.75;;;18.29;49.13
72685;BME280;61365;52.162;4.500;2023-05-25T12:27:38;102928.81;;;17.96;50.23
72685;BME280;61365;52.162;4.500;2023-05-25T12:30:06;102920.81;;;17.80;50.69
72685;BME280;61365;52.162;4.500;2023-05-25T12:32:34;102929.75;;;18.12;49.33
72685;BME280;61365;52.162;4.500;2023-05-25T12:35:15;102910.22;;;17.86;50.83
72685;BME280;61365;52.162;4.500;2023-05-25T12:37:41;102923.31;;;17.26;51.89
72685;BME280;61365;52.162;4.500;2023-05-25T12:40:25;102918.97;;;17.44;51.22
72685;BME280;61365;52.162;4.500;2023-05-25T12:42:56;102922.50;;;17.55;51.48
72685;BME280;61365;52.162;4.500;2023-05-25T12:45:22;102918.66;;;16.92;55.13
72685;BME280;61365;52.162;4.500;2023-05-25T12:47:49;102918.09;;;17.54;52.60
72685;BME280;61365;52.162;4.500;2023-05-25T12:50:15;102921.63;;;17.56;52.60
72685;BME280;61365;52.162;4.500;2023-05-25T12:52:43;102918.09;;;17.52;52.67
72685;BME280;61365;52.162;4.500;2023-05-25T12:55:21;102925.09;;;17.29;52.25
72685;BME280;61365;52.162;4.500;2023-05-25T12:57:55;102912.78;;;17.57;51.70
72685;BME280;61365;52.162;4.500;2023-05-25T13:00:23;102914.63;;;17.74;51.93
72685;BME280;61365;52.162;4.500;2023-05-25T13:03:00;102913.81;;;18.03;51.88
72685;BME280;61365;52.162;4.500;2023-05-25T13:05:30;102906.69;;;18.64;49.41
72685;BME280;61365;52.162;4.500;2023-05-25T13:07:58;102905.81;;;18.30;50.21
72685;BME280;61365;52.162;4.500;2023-05-25T13:10:26;102896.97;;;18.44;49.10